Mount Chase, Maine
Current Conditions -  °F | °C
As of 4:53 PM on Wednesday 22 Oct 2014 (Local Time) from KMLT Reporting Station
Overcast Overcast  
Wind Chill: 43°   Ceiling: 6000
Heat Index: 48°   Visibility: 10mi
Dew Point: 41°   Wind: 12mph
Humidity: 77%   Direction: 50°NE
Pressure: 30.28"   Gusts: NA
Location:  46.0685°N, 68.6029°W
Report Text: KMLT 222053Z AUTO 05010KT 10SM SCT048 BKN060 OVC070 09/05 A3028 RMK AO2 RAE44 SLP260 P0003 60006 T00890050 51006
Loading
Personal Weather Stations






























Interactive Weather Map
Tropical Storm Tracking
New forecast layout! Learn more

10-Day Weather Forecast

Advertisements
Track Severe Weather on mobile